sensor_id;sensor_type;location;lat;lon;timestamp;P1;durP1;ratioP1;P2;durP2;ratioP2
8552;SDS011;73833;51.014;16.950;2023-12-07T00:00:38;39.53;;;30.77;;
8552;SDS011;73833;51.014;16.950;2023-12-07T00:03:03;42.55;;;32.03;;
8552;SDS011;73833;51.014;16.950;2023-12-07T00:05:32;42.05;;;30.98;;
8552;SDS011;73833;51.014;16.950;2023-12-07T00:07:57;41.63;;;30.48;;
8552;SDS011;73833;51.014;16.950;2023-12-07T00:10:22;40.92;;;31.40;;
8552;SDS011;73833;51.014;16.950;2023-12-07T00:12:47;41.20;;;30.58;;
8552;SDS011;73833;51.014;16.950;2023-12-07T00:15:12;39.33;;;32.20;;
8552;SDS011;73833;51.014;16.950;2023-12-07T00:17:38;40.92;;;33.03;;
8552;SDS011;73833;51.014;16.950;2023-12-07T00:20:03;41.55;;;30.98;;
8552;SDS011;73833;51.014;16.950;2023-12-07T00:22:31;38.78;;;30.70;;
8552;SDS011;73833;51.014;16.950;2023-12-07T00:24:56;40.80;;;32.05;;
8552;SDS011;73833;51.014;16.950;2023-12-07T00:27:22;40.38;;;31.20;;
8552;SDS011;73833;51.014;16.950;2023-12-07T00:29:48;39.50;;;31.13;;
8552;SDS011;73833;51.014;16.950;2023-12-07T00:32:13;41.42;;;31.55;;
8552;SDS011;73833;51.014;16.950;2023-12-07T00:34:38;39.50;;;30.83;;
8552;SDS011;73833;51.014;16.950;2023-12-07T00:37:03;42.25;;;32.05;;
8552;SDS011;73833;51.014;16.950;2023-12-07T00:39:29;42.30;;;32.65;;
8552;SDS011;73833;51.014;16.950;2023-12-07T00:41:54;42.88;;;31.40;;
8552;SDS011;73833;51.014;16.950;2023-12-07T00:44:19;40.35;;;31.55;;
8552;SDS011;73833;51.014;16.950;2023-12-07T00:46:45;40.78;;;30.52;;
8552;SDS011;73833;51.014;16.950;2023-12-07T00:49:10;37.40;;;29.65;;
8552;SDS011;73833;51.014;16.950;2023-12-07T00:51:35;37.25;;;30.52;;
8552;SDS011;73833;51.014;16.950;2023-12-07T00:54:00;39.25;;;31.92;;
8552;SDS011;73833;51.014;16.950;2023-12-07T00:56:26;41.70;;;31.13;;
8552;SDS011;73833;51.014;16.950;2023-12-07T00:58:51;39.35;;;31.73;;
8552;SDS011;73833;51.014;16.950;2023-12-07T01:01:16;38.72;;;31.42;;
8552;SDS011;73833;51.014;16.950;2023-12-07T01:03:41;39.90;;;30.83;;
8552;SDS011;73833;51.014;16.950;2023-12-07T01:06:07;41.10;;;29.90;;
8552;SDS011;73833;51.014;16.950;2023-12-07T01:08:32;42.80;;;31.60;;
8552;SDS011;73833;51.014;16.950;2023-12-07T01:10:57;41.35;;;30.65;;
8552;SDS011;73833;51.014;16.950;2023-12-07T01:13:23;38.10;;;30.25;;
8552;SDS011;73833;51.014;16.950;2023-12-07T01:15:48;40.95;;;31.27;;
8552;SDS011;73833;51.014;16.950;2023-12-07T01:18:14;39.97;;;31.60;;
8552;SDS011;73833;51.014;16.950;2023-12-07T01:20:39;37.35;;;30.75;;
8552;SDS011;73833;51.014;16.950;2023-12-07T01:23:04;39.95;;;31.25;;
8552;SDS011;73833;51.014;16.950;2023-12-07T01:25:29;40.38;;;31.17;;
8552;SDS011;73833;51.014;16.950;2023-12-07T01:27:54;39.58;;;30.98;;
8552;SDS011;73833;51.014;16.950;2023-12-07T01:30:20;36.17;;;29.27;;
8552;SDS011;73833;51.014;16.950;2023-12-07T01:32:45;39.05;;;31.08;;
8552;SDS011;73833;51.014;16.950;2023-12-07T01:35:10;38.60;;;30.88;;
8552;SDS011;73833;51.014;16.950;2023-12-07T01:37:36;38.83;;;31.67;;
8552;SDS011;73833;51.014;16.950;2023-12-07T01:40:01;38.80;;;30.95;;
8552;SDS011;73833;51.014;16.950;2023-12-07T01:42:30;37.63;;;30.05;;
8552;SDS011;73833;51.014;16.950;2023-12-07T01:44:55;39.75;;;31.20;;
8552;SDS011;73833;51.014;16.950;2023-12-07T01:47:21;39.25;;;30.75;;
8552;SDS011;73833;51.014;16.950;2023-12-07T01:49:46;38.97;;;31.42;;
8552;SDS011;73833;51.014;16.950;2023-12-07T01:52:11;38.55;;;29.80;;
8552;SDS011;73833;51.014;16.950;2023-12-07T01:54:37;40.97;;;31.10;;
8552;SDS011;73833;51.014;16.950;2023-12-07T01:57:03;35.33;;;29.30;;
8552;SDS011;73833;51.014;16.950;2023-12-07T01:59:28;37.47;;;31.27;;
8552;SDS011;73833;51.014;16.950;2023-12-07T02:01:53;39.92;;;30.02;;
8552;SDS011;73833;51.014;16.950;2023-12-07T02:04:18;39.63;;;30.52;;
8552;SDS011;73833;51.014;16.950;2023-12-07T02:06:44;39.85;;;32.40;;
8552;SDS011;73833;51.014;16.950;2023-12-07T02:09:09;40.63;;;31.83;;
8552;SDS011;73833;51.014;16.950;2023-12-07T02:11:34;38.83;;;30.80;;
8552;SDS011;73833;51.014;16.950;2023-12-07T02:14:00;36.60;;;30.42;;
8552;SDS011;73833;51.014;16.950;2023-12-07T02:16:36;38.78;;;29.80;;
8552;SDS011;73833;51.014;16.950;2023-12-07T02:19:07;37.75;;;29.02;;
8552;SDS011;73833;51.014;16.950;2023-12-07T02:21:45;35.60;;;29.02;;
8552;SDS011;73833;51.014;16.950;2023-12-07T02:24:12;38.75;;;30.90;;
8552;SDS011;73833;51.014;16.950;2023-12-07T02:26:51;36.58;;;30.25;;
8552;SDS011;73833;51.014;16.950;2023-12-07T02:29:16;35.90;;;28.98;;
8552;SDS011;73833;51.014;16.950;2023-12-07T02:31:42;38.25;;;30.10;;
8552;SDS011;73833;51.014;16.950;2023-12-07T02:34:07;38.60;;;30.02;;
8552;SDS011;73833;51.014;16.950;2023-12-07T02:36:32;36.30;;;28.88;;
8552;SDS011;73833;51.014;16.950;2023-12-07T02:38:59;37.83;;;30.27;;
8552;SDS011;73833;51.014;16.950;2023-12-07T02:41:28;37.58;;;30.50;;
8552;SDS011;73833;51.014;16.950;2023-12-07T02:43:53;39.30;;;30.48;;
8552;SDS011;73833;51.014;16.950;2023-12-07T02:46:19;34.03;;;29.05;;
8552;SDS011;73833;51.014;16.950;2023-12-07T02:48:44;38.40;;;30.63;;
8552;SDS011;73833;51.014;16.950;2023-12-07T02:51:09;37.65;;;30.20;;
8552;SDS011;73833;51.014;16.950;2023-12-07T02:53:35;38.58;;;30.15;;
8552;SDS011;73833;51.014;16.950;2023-12-07T02:56:00;38.05;;;31.23;;
8552;SDS011;73833;51.014;16.950;2023-12-07T02:58:25;34.35;;;29.52;;
8552;SDS011;73833;51.014;16.950;2023-12-07T03:00:50;41.50;;;31.23;;
8552;SDS011;73833;51.014;16.950;2023-12-07T03:03:15;38.25;;;30.63;;
8552;SDS011;73833;51.014;16.950;2023-12-07T03:05:41;38.47;;;31.95;;
8552;SDS011;73833;51.014;16.950;2023-12-07T03:08:06;37.92;;;30.67;;
8552;SDS011;73833;51.014;16.950;2023-12-07T03:10:31;36.88;;;31.27;;
8552;SDS011;73833;51.014;16.950;2023-12-07T03:12:56;37.83;;;30.27;;
8552;SDS011;73833;51.014;16.950;2023-12-07T03:15:22;42.28;;;32.20;;
8552;SDS011;73833;51.014;16.950;2023-12-07T03:17:48;41.25;;;31.77;;
8552;SDS011;73833;51.014;16.950;2023-12-07T03:20:14;38.58;;;31.17;;
8552;SDS011;73833;51.014;16.950;2023-12-07T03:22:39;40.78;;;31.63;;
8552;SDS011;73833;51.014;16.950;2023-12-07T03:25:04;40.78;;;31.50;;
8552;SDS011;73833;51.014;16.950;2023-12-07T03:27:30;42.22;;;32.28;;
8552;SDS011;73833;51.014;16.950;2023-12-07T03:29:56;38.92;;;32.03;;
8552;SDS011;73833;51.014;16.950;2023-12-07T03:32:21;38.15;;;31.67;;
8552;SDS011;73833;51.014;16.950;2023-12-07T03:34:46;40.00;;;32.05;;
8552;SDS011;73833;51.014;16.950;2023-12-07T03:37:11;38.33;;;31.23;;
8552;SDS011;73833;51.014;16.950;2023-12-07T03:39:37;38.78;;;32.60;;
8552;SDS011;73833;51.014;16.950;2023-12-07T03:42:02;39.28;;;30.80;;
8552;SDS011;73833;51.014;16.950;2023-12-07T03:44:27;38.53;;;31.80;;
8552;SDS011;73833;51.014;16.950;2023-12-07T03:46:53;40.10;;;31.90;;
8552;SDS011;73833;51.014;16.950;2023-12-07T03:49:18;40.53;;;31.77;;
8552;SDS011;73833;51.014;16.950;2023-12-07T03:51:43;38.90;;;31.58;;
8552;SDS011;73833;51.014;16.950;2023-12-07T03:54:08;40.90;;;31.35;;
8552;SDS011;73833;51.014;16.950;2023-12-07T03:56:34;39.17;;;31.55;;
8552;SDS011;73833;51.014;16.950;2023-12-07T03:58:59;37.53;;;29.65;;
8552;SDS011;73833;51.014;16.950;2023-12-07T04:01:25;37.63;;;31.13;;
8552;SDS011;73833;51.014;16.950;2023-12-07T04:03:51;39.50;;;31.73;;
8552;SDS011;73833;51.014;16.950;2023-12-07T04:06:17;37.95;;;29.85;;
8552;SDS011;73833;51.014;16.950;2023-12-07T04:08:43;38.10;;;30.60;;
8552;SDS011;73833;51.014;16.950;2023-12-07T04:11:08;37.10;;;31.25;;
8552;SDS011;73833;51.014;16.950;2023-12-07T04:13:33;39.90;;;30.25;;
8552;SDS011;73833;51.014;16.950;2023-12-07T04:15:59;39.50;;;30.65;;
8552;SDS011;73833;51.014;16.950;2023-12-07T04:18:24;41.60;;;31.30;;
8552;SDS011;73833;51.014;16.950;2023-12-07T04:20:49;35.80;;;29.70;;
8552;SDS011;73833;51.014;16.950;2023-12-07T04:23:14;37.78;;;31.02;;
8552;SDS011;73833;51.014;16.950;2023-12-07T04:25:40;37.50;;;30.70;;
8552;SDS011;73833;51.014;16.950;2023-12-07T04:28:05;39.90;;;31.20;;
8552;SDS011;73833;51.014;16.950;2023-12-07T04:30:30;38.80;;;30.35;;
8552;SDS011;73833;51.014;16.950;2023-12-07T04:32:55;39.15;;;31.75;;
8552;SDS011;73833;51.014;16.950;2023-12-07T04:35:21;38.92;;;30.70;;
8552;SDS011;73833;51.014;16.950;2023-12-07T04:37:46;36.72;;;30.17;;
8552;SDS011;73833;51.014;16.950;2023-12-07T04:40:12;39.60;;;30.67;;
8552;SDS011;73833;51.014;16.950;2023-12-07T04:42:37;40.03;;;30.77;;
8552;SDS011;73833;51.014;16.950;2023-12-07T04:45:02;35.40;;;30.35;;
8552;SDS011;73833;51.014;16.950;2023-12-07T04:47:28;37.78;;;31.90;;
8552;SDS011;73833;51.014;16.950;2023-12-07T04:49:53;35.97;;;30.08;;
8552;SDS011;73833;51.014;16.950;2023-12-07T04:52:18;39.90;;;30.75;;
8552;SDS011;73833;51.014;16.950;2023-12-07T04:54:44;39.75;;;30.52;;
8552;SDS011;73833;51.014;16.950;2023-12-07T04:57:09;37.45;;;30.15;;
8552;SDS011;73833;51.014;16.950;2023-12-07T04:59:34;39.38;;;30.20;;
8552;SDS011;73833;51.014;16.950;2023-12-07T05:02:00;38.90;;;29.35;;
8552;SDS011;73833;51.014;16.950;2023-12-07T05:04:25;37.28;;;30.75;;
8552;SDS011;73833;51.014;16.950;2023-12-07T05:06:50;39.38;;;29.25;;
8552;SDS011;73833;51.014;16.950;2023-12-07T05:09:16;38.78;;;31.27;;
8552;SDS011;73833;51.014;16.950;2023-12-07T05:11:41;36.78;;;30.77;;
8552;SDS011;73833;51.014;16.950;2023-12-07T05:14:06;39.83;;;30.67;;
8552;SDS011;73833;51.014;16.950;2023-12-07T05:16:32;37.95;;;29.63;;
8552;SDS011;73833;51.014;16.950;2023-12-07T05:18:57;39.30;;;30.48;;
8552;SDS011;73833;51.014;16.950;2023-12-07T05:21:23;36.75;;;30.15;;
8552;SDS011;73833;51.014;16.950;2023-12-07T05:23:48;37.10;;;29.83;;
8552;SDS011;73833;51.014;16.950;2023-12-07T05:26:13;39.58;;;31.60;;
8552;SDS011;73833;51.014;16.950;2023-12-07T05:28:38;35.78;;;28.75;;
8552;SDS011;73833;51.014;16.950;2023-12-07T05:31:03;38.50;;;31.65;;
8552;SDS011;73833;51.014;16.950;2023-12-07T05:33:29;35.60;;;30.58;;
8552;SDS011;73833;51.014;16.950;2023-12-07T05:35:54;40.42;;;30.77;;
8552;SDS011;73833;51.014;16.950;2023-12-07T05:38:19;36.35;;;30.75;;
8552;SDS011;73833;51.014;16.950;2023-12-07T05:40:44;39.45;;;30.98;;
8552;SDS011;73833;51.014;16.950;2023-12-07T05:43:10;37.47;;;30.38;;
8552;SDS011;73833;51.014;16.950;2023-12-07T05:45:35;38.05;;;30.17;;
8552;SDS011;73833;51.014;16.950;2023-12-07T05:48:00;35.45;;;29.42;;
8552;SDS011;73833;51.014;16.950;2023-12-07T05:50:25;39.47;;;30.52;;
8552;SDS011;73833;51.014;16.950;2023-12-07T05:52:51;37.17;;;29.02;;
8552;SDS011;73833;51.014;16.950;2023-12-07T05:55:16;38.05;;;29.42;;
8552;SDS011;73833;51.014;16.950;2023-12-07T05:57:44;35.65;;;29.33;;
8552;SDS011;73833;51.014;16.950;2023-12-07T06:00:09;39.22;;;30.48;;
8552;SDS011;73833;51.014;16.950;2023-12-07T06:02:35;35.75;;;30.63;;
8552;SDS011;73833;51.014;16.950;2023-12-07T06:05:02;42.17;;;31.48;;
8552;SDS011;73833;51.014;16.950;2023-12-07T06:07:29;38.67;;;31.95;;
8552;SDS011;73833;51.014;16.950;2023-12-07T06:09:54;41.30;;;31.75;;
8552;SDS011;73833;51.014;16.950;2023-12-07T06:12:20;38.15;;;29.58;;
8552;SDS011;73833;51.014;16.950;2023-12-07T06:14:46;40.25;;;30.85;;
8552;SDS011;73833;51.014;16.950;2023-12-07T06:17:12;45.80;;;30.58;;
8552;SDS011;73833;51.014;16.950;2023-12-07T06:19:37;38.38;;;31.00;;
8552;SDS011;73833;51.014;16.950;2023-12-07T06:22:02;41.05;;;30.15;;
8552;SDS011;73833;51.014;16.950;2023-12-07T06:24:27;37.08;;;29.48;;
8552;SDS011;73833;51.014;16.950;2023-12-07T06:26:53;49.78;;;33.58;;
8552;SDS011;73833;51.014;16.950;2023-12-07T06:29:18;44.38;;;30.98;;
8552;SDS011;73833;51.014;16.950;2023-12-07T06:31:44;55.72;;;31.58;;
8552;SDS011;73833;51.014;16.950;2023-12-07T06:34:09;53.75;;;32.78;;
8552;SDS011;73833;51.014;16.950;2023-12-07T06:36:34;57.67;;;33.50;;
8552;SDS011;73833;51.014;16.950;2023-12-07T06:39:01;60.65;;;37.15;;
8552;SDS011;73833;51.014;16.950;2023-12-07T06:41:26;55.78;;;33.22;;
8552;SDS011;73833;51.014;16.950;2023-12-07T06:43:51;47.22;;;31.30;;
8552;SDS011;73833;51.014;16.950;2023-12-07T06:46:17;50.63;;;33.00;;
8552;SDS011;73833;51.014;16.950;2023-12-07T06:48:42;51.25;;;33.10;;
8552;SDS011;73833;51.014;16.950;2023-12-07T06:51:07;51.42;;;33.33;;
8552;SDS011;73833;51.014;16.950;2023-12-07T06:53:32;49.50;;;33.72;;
8552;SDS011;73833;51.014;16.950;2023-12-07T06:55:58;48.75;;;33.10;;
8552;SDS011;73833;51.014;16.950;2023-12-07T06:58:23;48.05;;;32.78;;
8552;SDS011;73833;51.014;16.950;2023-12-07T07:00:49;46.08;;;32.30;;
8552;SDS011;73833;51.014;16.950;2023-12-07T07:03:14;48.28;;;32.35;;
8552;SDS011;73833;51.014;16.950;2023-12-07T07:05:39;44.72;;;31.90;;
8552;SDS011;73833;51.014;16.950;2023-12-07T07:08:05;44.13;;;31.23;;
8552;SDS011;73833;51.014;16.950;2023-12-07T07:10:32;45.90;;;31.60;;
8552;SDS011;73833;51.014;16.950;2023-12-07T07:13:01;42.67;;;32.00;;
8552;SDS011;73833;51.014;16.950;2023-12-07T07:15:29;52.72;;;32.47;;
8552;SDS011;73833;51.014;16.950;2023-12-07T07:17:54;46.53;;;32.72;;
8552;SDS011;73833;51.014;16.950;2023-12-07T07:20:19;48.33;;;31.77;;
8552;SDS011;73833;51.014;16.950;2023-12-07T07:22:45;56.10;;;33.25;;
8552;SDS011;73833;51.014;16.950;2023-12-07T07:25:11;54.03;;;33.47;;
8552;SDS011;73833;51.014;16.950;2023-12-07T07:27:36;58.65;;;34.80;;
8552;SDS011;73833;51.014;16.950;2023-12-07T07:30:01;55.03;;;37.45;;
8552;SDS011;73833;51.014;16.950;2023-12-07T07:32:29;57.20;;;37.55;;
8552;SDS011;73833;51.014;16.950;2023-12-07T07:34:54;52.88;;;37.08;;
8552;SDS011;73833;51.014;16.950;2023-12-07T07:37:19;51.97;;;35.53;;
8552;SDS011;73833;51.014;16.950;2023-12-07T07:39:45;54.70;;;37.38;;
8552;SDS011;73833;51.014;16.950;2023-12-07T07:42:10;59.25;;;36.05;;
8552;SDS011;73833;51.014;16.950;2023-12-07T07:44:35;53.92;;;35.53;;
8552;SDS011;73833;51.014;16.950;2023-12-07T07:47:01;54.13;;;34.38;;
8552;SDS011;73833;51.014;16.950;2023-12-07T07:49:26;55.58;;;35.08;;
8552;SDS011;73833;51.014;16.950;2023-12-07T07:51:51;45.60;;;33.00;;
8552;SDS011;73833;51.014;16.950;2023-12-07T07:54:17;46.58;;;31.65;;
8552;SDS011;73833;51.014;16.950;2023-12-07T07:56:43;45.28;;;32.42;;
8552;SDS011;73833;51.014;16.950;2023-12-07T07:59:08;45.60;;;31.77;;
8552;SDS011;73833;51.014;16.950;2023-12-07T08:01:33;45.30;;;30.60;;
8552;SDS011;73833;51.014;16.950;2023-12-07T08:03:58;45.40;;;31.40;;
8552;SDS011;73833;51.014;16.950;2023-12-07T08:06:24;41.05;;;31.02;;
8552;SDS011;73833;51.014;16.950;2023-12-07T08:08:49;45.90;;;30.75;;
8552;SDS011;73833;51.014;16.950;2023-12-07T08:11:14;45.00;;;30.88;;
8552;SDS011;73833;51.014;16.950;2023-12-07T08:13:40;41.95;;;29.88;;
8552;SDS011;73833;51.014;16.950;2023-12-07T08:16:07;41.47;;;30.35;;
8552;SDS011;73833;51.014;16.950;2023-12-07T08:18:34;40.53;;;29.65;;
8552;SDS011;73833;51.014;16.950;2023-12-07T08:20:59;46.25;;;29.33;;
8552;SDS011;73833;51.014;16.950;2023-12-07T08:23:24;39.13;;;28.58;;
8552;SDS011;73833;51.014;16.950;2023-12-07T08:25:49;36.88;;;28.67;;
8552;SDS011;73833;51.014;16.950;2023-12-07T08:28:15;40.90;;;28.60;;
8552;SDS011;73833;51.014;16.950;2023-12-07T08:30:40;38.08;;;28.27;;
8552;SDS011;73833;51.014;16.950;2023-12-07T08:33:05;39.78;;;29.13;;
8552;SDS011;73833;51.014;16.950;2023-12-07T08:35:30;37.22;;;27.98;;
8552;SDS011;73833;51.014;16.950;2023-12-07T08:37:56;45.42;;;28.52;;
8552;SDS011;73833;51.014;16.950;2023-12-07T08:40:21;36.38;;;27.08;;
8552;SDS011;73833;51.014;16.950;2023-12-07T08:42:47;43.17;;;27.80;;
8552;SDS011;73833;51.014;16.950;2023-12-07T08:45:13;35.40;;;27.20;;
8552;SDS011;73833;51.014;16.950;2023-12-07T08:47:42;34.10;;;26.33;;
8552;SDS011;73833;51.014;16.950;2023-12-07T08:50:07;34.83;;;27.02;;
8552;SDS011;73833;51.014;16.950;2023-12-07T08:52:33;37.63;;;26.52;;
8552;SDS011;73833;51.014;16.950;2023-12-07T08:54:58;35.60;;;26.25;;
8552;SDS011;73833;51.014;16.950;2023-12-07T08:57:23;36.05;;;25.70;;
8552;SDS011;73833;51.014;16.950;2023-12-07T08:59:49;33.90;;;26.42;;
8552;SDS011;73833;51.014;16.950;2023-12-07T09:02:14;33.83;;;25.73;;
8552;SDS011;73833;51.014;16.950;2023-12-07T09:04:39;32.33;;;24.77;;
8552;SDS011;73833;51.014;16.950;2023-12-07T09:07:05;32.35;;;24.27;;
8552;SDS011;73833;51.014;16.950;2023-12-07T09:09:30;34.80;;;25.77;;
8552;SDS011;73833;51.014;16.950;2023-12-07T09:11:55;33.10;;;25.55;;
8552;SDS011;73833;51.014;16.950;2023-12-07T09:14:21;31.77;;;23.98;;
8552;SDS011;73833;51.014;16.950;2023-12-07T09:16:47;34.15;;;24.92;;
8552;SDS011;73833;51.014;16.950;2023-12-07T09:19:12;31.05;;;24.83;;
8552;SDS011;73833;51.014;16.950;2023-12-07T09:21:38;31.92;;;24.15;;
8552;SDS011;73833;51.014;16.950;2023-12-07T09:24:04;35.17;;;23.95;;
8552;SDS011;73833;51.014;16.950;2023-12-07T09:26:30;32.13;;;25.13;;
8552;SDS011;73833;51.014;16.950;2023-12-07T09:28:56;27.63;;;23.35;;
8552;SDS011;73833;51.014;16.950;2023-12-07T09:31:21;31.60;;;23.50;;
8552;SDS011;73833;51.014;16.950;2023-12-07T09:33:46;29.05;;;23.40;;
8552;SDS011;73833;51.014;16.950;2023-12-07T09:36:14;36.00;;;23.55;;
8552;SDS011;73833;51.014;16.950;2023-12-07T09:38:43;30.00;;;23.10;;
8552;SDS011;73833;51.014;16.950;2023-12-07T09:41:08;32.45;;;22.45;;
8552;SDS011;73833;51.014;16.950;2023-12-07T09:43:33;31.00;;;24.27;;
8552;SDS011;73833;51.014;16.950;2023-12-07T09:45:58;28.83;;;23.25;;
8552;SDS011;73833;51.014;16.950;2023-12-07T09:48:24;29.70;;;24.00;;
8552;SDS011;73833;51.014;16.950;2023-12-07T09:50:50;28.92;;;22.80;;
8552;SDS011;73833;51.014;16.950;2023-12-07T09:53:16;29.80;;;22.98;;
8552;SDS011;73833;51.014;16.950;2023-12-07T09:55:42;32.63;;;23.65;;
8552;SDS011;73833;51.014;16.950;2023-12-07T09:58:07;32.83;;;23.20;;
8552;SDS011;73833;51.014;16.950;2023-12-07T10:00:32;33.22;;;23.35;;
8552;SDS011;73833;51.014;16.950;2023-12-07T10:02:58;32.20;;;21.63;;
8552;SDS011;73833;51.014;16.950;2023-12-07T10:05:23;27.38;;;22.83;;
8552;SDS011;73833;51.014;16.950;2023-12-07T10:07:49;31.35;;;23.30;;
8552;SDS011;73833;51.014;16.950;2023-12-07T10:10:15;29.80;;;22.20;;
8552;SDS011;73833;51.014;16.950;2023-12-07T10:12:48;32.53;;;22.65;;
8552;SDS011;73833;51.014;16.950;2023-12-07T10:15:16;29.33;;;22.35;;
8552;SDS011;73833;51.014;16.950;2023-12-07T10:17:51;29.27;;;21.08;;
8552;SDS011;73833;51.014;16.950;2023-12-07T10:20:17;30.95;;;21.55;;
8552;SDS011;73833;51.014;16.950;2023-12-07T10:22:43;25.63;;;20.50;;
8552;SDS011;73833;51.014;16.950;2023-12-07T10:25:09;27.30;;;21.02;;
8552;SDS011;73833;51.014;16.950;2023-12-07T10:27:35;26.52;;;20.25;;
8552;SDS011;73833;51.014;16.950;2023-12-07T10:30:00;25.77;;;20.75;;
8552;SDS011;73833;51.014;16.950;2023-12-07T10:32:26;27.73;;;20.73;;
8552;SDS011;73833;51.014;16.950;2023-12-07T10:34:51;23.63;;;19.65;;
8552;SDS011;73833;51.014;16.950;2023-12-07T10:37:17;26.25;;;19.10;;
8552;SDS011;73833;51.014;16.950;2023-12-07T10:39:42;25.33;;;19.08;;
8552;SDS011;73833;51.014;16.950;2023-12-07T10:42:09;26.98;;;19.20;;
8552;SDS011;73833;51.014;16.950;2023-12-07T10:44:35;26.77;;;20.25;;
8552;SDS011;73833;51.014;16.950;2023-12-07T10:47:04;26.17;;;20.00;;
8552;SDS011;73833;51.014;16.950;2023-12-07T10:49:30;22.50;;;18.75;;
8552;SDS011;73833;51.014;16.950;2023-12-07T10:51:58;24.52;;;18.95;;
8552;SDS011;73833;51.014;16.950;2023-12-07T10:54:25;25.40;;;18.50;;
8552;SDS011;73833;51.014;16.950;2023-12-07T10:56:51;24.15;;;19.35;;
8552;SDS011;73833;51.014;16.950;2023-12-07T10:59:17;23.50;;;19.02;;
8552;SDS011;73833;51.014;16.950;2023-12-07T11:01:43;23.27;;;18.27;;
8552;SDS011;73833;51.014;16.950;2023-12-07T11:04:12;26.05;;;19.05;;
8552;SDS011;73833;51.014;16.950;2023-12-07T11:06:38;24.50;;;18.77;;
8552;SDS011;73833;51.014;16.950;2023-12-07T11:09:06;21.13;;;17.95;;
8552;SDS011;73833;51.014;16.950;2023-12-07T11:13:59;21.85;;;17.73;;
8552;SDS011;73833;51.014;16.950;2023-12-07T11:16:31;25.13;;;18.77;;
8552;SDS011;73833;51.014;16.950;2023-12-07T11:19:00;20.08;;;17.80;;
8552;SDS011;73833;51.014;16.950;2023-12-07T11:21:25;22.38;;;18.13;;
8552;SDS011;73833;51.014;16.950;2023-12-07T11:23:50;25.00;;;17.90;;
8552;SDS011;73833;51.014;16.950;2023-12-07T11:26:19;22.10;;;17.88;;
8552;SDS011;73833;51.014;16.950;2023-12-07T11:28:44;22.38;;;17.80;;
8552;SDS011;73833;51.014;16.950;2023-12-07T11:31:09;21.27;;;16.73;;
8552;SDS011;73833;51.014;16.950;2023-12-07T11:33:38;23.77;;;17.50;;
8552;SDS011;73833;51.014;16.950;2023-12-07T11:36:08;22.17;;;17.60;;
8552;SDS011;73833;51.014;16.950;2023-12-07T11:38:34;20.95;;;16.25;;
8552;SDS011;73833;51.014;16.950;2023-12-07T11:41:00;21.75;;;17.15;;
8552;SDS011;73833;51.014;16.950;2023-12-07T11:45:58;24.25;;;16.95;;
8552;SDS011;73833;51.014;16.950;2023-12-07T11:48:23;21.20;;;17.67;;
8552;SDS011;73833;51.014;16.950;2023-12-07T11:53:21;21.73;;;16.75;;
8552;SDS011;73833;51.014;16.950;2023-12-07T11:55:47;19.60;;;16.63;;
8552;SDS011;73833;51.014;16.950;2023-12-07T11:58:12;19.77;;;15.95;;
8552;SDS011;73833;51.014;16.950;2023-12-07T12:00:38;21.60;;;16.48;;
8552;SDS011;73833;51.014;16.950;2023-12-07T12:03:05;20.75;;;15.70;;
8552;SDS011;73833;51.014;16.950;2023-12-07T12:05:30;16.70;;;14.90;;
8552;SDS011;73833;51.014;16.950;2023-12-07T12:07:55;19.38;;;15.40;;
8552;SDS011;73833;51.014;16.950;2023-12-07T12:10:21;17.10;;;15.13;;
8552;SDS011;73833;51.014;16.950;2023-12-07T12:12:49;18.90;;;15.65;;
8552;SDS011;73833;51.014;16.950;2023-12-07T12:15:14;19.08;;;16.08;;
8552;SDS011;73833;51.014;16.950;2023-12-07T12:17:39;18.20;;;15.15;;
8552;SDS011;73833;51.014;16.950;2023-12-07T12:20:05;20.02;;;15.52;;
8552;SDS011;73833;51.014;16.950;2023-12-07T12:22:30;20.67;;;15.75;;
8552;SDS011;73833;51.014;16.950;2023-12-07T12:24:56;17.75;;;15.32;;
8552;SDS011;73833;51.014;16.950;2023-12-07T12:27:22;19.48;;;14.63;;
8552;SDS011;73833;51.014;16.950;2023-12-07T12:29:47;15.48;;;13.63;;
8552;SDS011;73833;51.014;16.950;2023-12-07T12:32:12;16.98;;;14.35;;
8552;SDS011;73833;51.014;16.950;2023-12-07T12:34:38;17.52;;;14.48;;
8552;SDS011;73833;51.014;16.950;2023-12-07T12:37:03;18.25;;;14.57;;
8552;SDS011;73833;51.014;16.950;2023-12-07T12:39:32;16.10;;;14.00;;
8552;SDS011;73833;51.014;16.950;2023-12-07T12:41:57;16.98;;;14.38;;
8552;SDS011;73833;51.014;16.950;2023-12-07T12:44:23;17.63;;;13.30;;
8552;SDS011;73833;51.014;16.950;2023-12-07T12:46:49;18.90;;;15.00;;
8552;SDS011;73833;51.014;16.950;2023-12-07T12:49:14;14.52;;;12.52;;
8552;SDS011;73833;51.014;16.950;2023-12-07T12:51:41;16.73;;;13.57;;
8552;SDS011;73833;51.014;16.950;2023-12-07T12:54:08;16.13;;;14.18;;
8552;SDS011;73833;51.014;16.950;2023-12-07T12:56:34;16.38;;;13.88;;
8552;SDS011;73833;51.014;16.950;2023-12-07T12:58:59;15.45;;;13.38;;
8552;SDS011;73833;51.014;16.950;2023-12-07T13:01:24;15.43;;;13.68;;
8552;SDS011;73833;51.014;16.950;2023-12-07T13:03:50;14.50;;;13.00;;
8552;SDS011;73833;51.014;16.950;2023-12-07T13:06:15;15.35;;;13.70;;
8552;SDS011;73833;51.014;16.950;2023-12-07T13:08:42;16.30;;;14.18;;
8552;SDS011;73833;51.014;16.950;2023-12-07T13:11:08;15.23;;;13.10;;
8552;SDS011;73833;51.014;16.950;2023-12-07T13:13:34;16.65;;;12.52;;
8552;SDS011;73833;51.014;16.950;2023-12-07T13:15:59;15.05;;;12.40;;
8552;SDS011;73833;51.014;16.950;2023-12-07T13:18:24;16.70;;;13.00;;
8552;SDS011;73833;51.014;16.950;2023-12-07T13:20:49;17.85;;;13.02;;
8552;SDS011;73833;51.014;16.950;2023-12-07T13:23:14;14.73;;;13.13;;
8552;SDS011;73833;51.014;16.950;2023-12-07T13:25:40;14.38;;;12.85;;
8552;SDS011;73833;51.014;16.950;2023-12-07T13:28:06;14.27;;;12.77;;
8552;SDS011;73833;51.014;16.950;2023-12-07T13:30:31;14.60;;;12.55;;
8552;SDS011;73833;51.014;16.950;2023-12-07T13:33:00;16.10;;;13.45;;
8552;SDS011;73833;51.014;16.950;2023-12-07T13:35:25;15.05;;;12.38;;
8552;SDS011;73833;51.014;16.950;2023-12-07T13:37:50;14.32;;;12.10;;
8552;SDS011;73833;51.014;16.950;2023-12-07T13:40:16;13.55;;;11.70;;
8552;SDS011;73833;51.014;16.950;2023-12-07T13:42:41;15.00;;;12.25;;
8552;SDS011;73833;51.014;16.950;2023-12-07T13:45:06;14.43;;;11.95;;
8552;SDS011;73833;51.014;16.950;2023-12-07T13:47:33;18.05;;;11.95;;
8552;SDS011;73833;51.014;16.950;2023-12-07T13:50:01;13.70;;;11.70;;
8552;SDS011;73833;51.014;16.950;2023-12-07T13:52:28;12.45;;;10.88;;
8552;SDS011;73833;51.014;16.950;2023-12-07T13:54:54;12.88;;;11.45;;
8552;SDS011;73833;51.014;16.950;2023-12-07T13:57:19;15.88;;;11.85;;
8552;SDS011;73833;51.014;16.950;2023-12-07T13:59:45;14.68;;;11.70;;
8552;SDS011;73833;51.014;16.950;2023-12-07T14:02:10;13.07;;;11.77;;
8552;SDS011;73833;51.014;16.950;2023-12-07T14:04:36;12.38;;;11.07;;
8552;SDS011;73833;51.014;16.950;2023-12-07T14:07:08;17.73;;;11.65;;
8552;SDS011;73833;51.014;16.950;2023-12-07T14:09:36;12.68;;;10.95;;
8552;SDS011;73833;51.014;16.950;2023-12-07T14:12:02;13.88;;;12.15;;
8552;SDS011;73833;51.014;16.950;2023-12-07T14:14:28;13.88;;;12.38;;
8552;SDS011;73833;51.014;16.950;2023-12-07T14:16:53;12.75;;;11.50;;
8552;SDS011;73833;51.014;16.950;2023-12-07T14:19:19;13.18;;;11.32;;